Time;durP1;ratioP1;P1;durP2;ratioP2;P2;SDS_P1;SDS_P2;PMS_P1;PMS_P2;Temp;Humidity;BMP_temperature;BMP_pressure;BME280_temperature;BME280_humidity;BME280_pressure;Samples;Min_cycle;Max_cycle;Signal;HPM_P1;HPM_P2
2022/07/11 00:00:50;;;;;;;;;;;17.90;74.30;;;;;;5067432;28;19928;-74
2022/07/11 00:03:17;;;;;;;;;;;17.90;74.40;;;;;;5069717;28;19924;-74
2022/07/11 00:05:44;;;;;;;;;;;17.80;74.30;;;;;;5059729;28;20305;-74
2022/07/11 00:08:12;;;;;;;;;;;17.80;74.40;;;;;;5069430;28;19974;-74
2022/07/11 00:10:40;;;;;;;;;;;17.80;74.30;;;;;;5068943;28;19924;-75
2022/07/11 00:13:07;;;;;;;;;;;17.70;74.10;;;;;;5057568;28;19946;-74
2022/07/11 00:15:34;;;;;;;;;;;17.70;74.10;;;;;;5065931;28;19933;-74
2022/07/11 00:18:01;;;;;;;;;;;17.70;74.10;;;;;;5071097;28;20002;-74
2022/07/11 00:20:28;;;;;;;;;;;17.60;74.10;;;;;;5062695;28;19966;-74
2022/07/11 00:22:55;;;;;;;;;;;17.60;74.20;;;;;;5062759;28;19935;-74
2022/07/11 00:25:23;;;;;;;;;;;17.60;74.20;;;;;;5070504;28;19975;-74
2022/07/11 00:27:50;;;;;;;;;;;17.60;74.20;;;;;;5066221;28;20028;-75
2022/07/11 00:30:17;;;;;;;;;;;17.50;74.20;;;;;;5065571;28;19936;-74
2022/07/11 00:32:44;;;;;;;;;;;17.50;74.30;;;;;;5060612;28;19925;-76
2022/07/11 00:35:11;;;;;;;;;;;17.50;74.30;;;;;;5068346;28;19925;-75
2022/07/11 00:37:38;;;;;;;;;;;17.50;74.40;;;;;;5064632;28;19931;-74
2022/07/11 00:40:05;;;;;;;;;;;17.40;74.50;;;;;;5062019;28;19931;-76
2022/07/11 00:42:33;;;;;;;;;;;17.40;74.60;;;;;;5061151;28;20429;-73
2022/07/11 00:45:00;;;;;;;;;;;17.40;74.60;;;;;;5061529;28;19925;-74
2022/07/11 00:47:27;;;;;;;;;;;17.40;74.60;;;;;;5058643;28;20032;-75
2022/07/11 00:49:54;;;;;;;;;;;17.30;74.60;;;;;;5063828;28;19935;-74
2022/07/11 00:52:21;;;;;;;;;;;17.30;74.70;;;;;;5063426;28;19931;-75
2022/07/11 00:54:47;;;;;;;;;;;17.30;74.70;;;;;;5063172;28;19994;-74
2022/07/11 00:57:14;;;;;;;;;;;17.20;74.70;;;;;;5057574;28;19938;-74
2022/07/11 00:59:42;;;;;;;;;;;17.20;74.70;;;;;;5059421;28;19931;-75
2022/07/11 01:02:09;;;;;;;;;;;17.20;74.90;;;;;;5059557;28;19924;-75
2022/07/11 01:04:36;;;;;;;;;;;17.20;74.90;;;;;;5055798;28;20011;-74
2022/07/11 01:07:03;;;;;;;;;;;17.20;74.90;;;;;;5062078;28;19932;-74
2022/07/11 01:09:31;;;;;;;;;;;17.10;74.70;;;;;;5062197;28;20023;-74
2022/07/11 01:11:57;;;;;;;;;;;17.10;74.70;;;;;;5061389;28;20298;-75
2022/07/11 01:14:24;;;;;;;;;;;17.10;74.70;;;;;;5062677;28;19924;-73
2022/07/11 01:16:53;;;;;;;;;;;17.00;74.70;;;;;;5068505;28;20029;-74
2022/07/11 01:19:19;;;;;;;;;;;17.00;74.80;;;;;;5071442;28;20429;-76
2022/07/11 01:21:49;;;;;;;;;;;17.00;74.80;;;;;;5066957;28;19925;-74
2022/07/11 01:24:18;;;;;;;;;;;16.90;74.80;;;;;;5064795;28;19936;-74
2022/07/11 01:26:46;;;;;;;;;;;16.90;74.90;;;;;;5064523;28;20015;-75
2022/07/11 01:29:14;;;;;;;;;;;16.90;74.90;;;;;;5080727;28;20469;-74
2022/07/11 01:31:41;;;;;;;;;;;16.90;75.00;;;;;;5061434;28;19983;-74
2022/07/11 01:34:08;;;;;;;;;;;16.80;74.90;;;;;;5078377;28;19924;-75
2022/07/11 01:36:35;;;;;;;;;;;16.80;74.90;;;;;;5068941;28;19925;-75
2022/07/11 01:39:02;;;;;;;;;;;16.80;74.90;;;;;;5061986;28;19988;-73
2022/07/11 01:41:30;;;;;;;;;;;16.80;74.80;;;;;;5055716;28;19997;-74
2022/07/11 01:43:57;;;;;;;;;;;16.80;75.10;;;;;;5069265;28;19933;-73
2022/07/11 01:46:24;;;;;;;;;;;16.70;74.90;;;;;;5066977;28;19971;-74
2022/07/11 01:48:50;;;;;;;;;;;16.70;74.80;;;;;;5063790;28;19932;-72
2022/07/11 01:51:17;;;;;;;;;;;16.70;75.00;;;;;;5069321;28;19928;-73
2022/07/11 01:53:44;;;;;;;;;;;16.60;75.00;;;;;;5067323;28;19932;-76
2022/07/11 01:56:11;;;;;;;;;;;16.60;75.00;;;;;;5066566;28;19931;-74
2022/07/11 01:58:39;;;;;;;;;;;16.60;75.10;;;;;;5066300;28;20369;-74
2022/07/11 02:01:06;;;;;;;;;;;16.50;75.00;;;;;;5067853;28;20165;-73
2022/07/11 02:06:02;;;;;;;;;;;16.50;75.00;;;;;;4998012;28;19972;-75
2022/07/11 02:08:29;;;;;;;;;;;16.50;75.20;;;;;;4987113;28;20432;-75
2022/07/11 02:10:56;;;;;;;;;;;16.50;75.20;;;;;;4981457;28;19930;-75
2022/07/11 02:13:23;;;;;;;;;;;;;;;;;;4984544;28;19926;-75
2022/07/11 02:15:53;;;;;;;;;;;16.40;74.60;;;;;;4985781;28;20000;-75
2022/07/11 02:18:20;;;;;;;;;;;16.40;75.10;;;;;;4983082;28;19937;-75
2022/07/11 02:20:48;;;;;;;;;;;16.40;75.00;;;;;;4987828;28;19926;-75
2022/07/11 02:23:16;;;;;;;;;;;16.30;74.90;;;;;;4987828;28;19942;-75
2022/07/11 02:25:42;;;;;;;;;;;16.30;75.10;;;;;;4984598;28;19930;-74
2022/07/11 02:28:09;;;;;;;;;;;16.30;75.20;;;;;;4988448;28;20017;-77
2022/07/11 02:30:36;;;;;;;;;;;16.20;75.00;;;;;;4986008;28;19926;-74
2022/07/11 02:33:05;;;;;;;;;;;16.20;75.10;;;;;;4984223;28;20028;-75
2022/07/11 02:35:33;;;;;;;;;;;16.20;75.10;;;;;;4986717;28;19957;-75
2022/07/11 02:38:01;;;;;;;;;;;16.20;75.30;;;;;;4981905;28;19934;-75
2022/07/11 02:40:28;;;;;;;;;;;16.10;75.20;;;;;;4984719;28;19932;-75
2022/07/11 02:42:55;;;;;;;;;;;16.10;75.40;;;;;;4988560;28;20021;-74
2022/07/11 02:45:21;;;;;;;;;;;16.10;75.30;;;;;;5003040;28;19976;-77
2022/07/11 02:47:48;;;;;;;;;;;16.10;75.40;;;;;;4985505;28;19926;-74
2022/07/11 02:50:16;;;;;;;;;;;16.10;75.50;;;;;;4980948;28;20369;-74
2022/07/11 02:52:43;;;;;;;;;;;16.10;75.60;;;;;;4989632;28;19949;-74
2022/07/11 02:55:12;;;;;;;;;;;16.00;75.40;;;;;;4987412;28;19980;-75
2022/07/11 02:57:39;;;;;;;;;;;16.00;75.60;;;;;;4982227;28;19934;-76
2022/07/11 03:00:08;;;;;;;;;;;16.00;75.60;;;;;;4986930;28;19926;-75
2022/07/11 03:02:35;;;;;;;;;;;16.00;75.80;;;;;;4982839;28;19934;-75
2022/07/11 03:05:02;;;;;;;;;;;15.90;75.50;;;;;;5016870;28;19929;-74
2022/07/11 03:07:30;;;;;;;;;;;15.90;75.70;;;;;;5022946;28;20556;-74
2022/07/11 03:09:57;;;;;;;;;;;15.90;75.70;;;;;;5030027;28;20300;-74
2022/07/11 03:12:23;;;;;;;;;;;15.90;75.70;;;;;;5028022;28;19933;-74
2022/07/11 03:14:51;;;;;;;;;;;;;;;;;;5029003;28;19925;-75
2022/07/11 03:17:18;;;;;;;;;;;15.80;75.00;;;;;;5025970;28;19999;-74
2022/07/11 03:19:45;;;;;;;;;;;15.80;75.60;;;;;;5023420;28;19943;-76
2022/07/11 03:22:11;;;;;;;;;;;15.80;75.60;;;;;;5040005;28;19932;-74
2022/07/11 03:24:41;;;;;;;;;;;15.70;75.50;;;;;;5023807;28;19933;-74
2022/07/11 03:27:08;;;;;;;;;;;15.70;75.50;;;;;;5022781;28;19925;-74
2022/07/11 03:29:35;;;;;;;;;;;15.70;75.50;;;;;;5029228;28;19979;-73
2022/07/11 03:32:01;;;;;;;;;;;15.70;75.60;;;;;;5023739;28;19936;-75
2022/07/11 03:34:28;;;;;;;;;;;15.70;75.50;;;;;;5010341;28;19926;-74
2022/07/11 03:36:56;;;;;;;;;;;15.70;75.60;;;;;;5016005;28;20418;-74
2022/07/11 03:39:23;;;;;;;;;;;15.60;75.40;;;;;;5015133;28;19934;-74
2022/07/11 03:41:51;;;;;;;;;;;15.60;75.50;;;;;;5021273;28;19929;-74
2022/07/11 03:44:18;;;;;;;;;;;15.60;75.70;;;;;;5006164;28;20027;-74
2022/07/11 03:46:45;;;;;;;;;;;15.60;75.60;;;;;;5001029;28;19952;-73
2022/07/11 03:49:12;;;;;;;;;;;15.60;75.50;;;;;;5038859;28;20300;-74
2022/07/11 03:51:38;;;;;;;;;;;15.60;75.70;;;;;;5032499;28;19925;-75
2022/07/11 03:54:05;;;;;;;;;;;15.50;75.90;;;;;;5001403;28;20023;-74
2022/07/11 03:56:32;;;;;;;;;;;15.60;75.80;;;;;;5024109;28;19960;-74
2022/07/11 03:59:00;;;;;;;;;;;15.50;75.70;;;;;;5016045;28;19979;-73
2022/07/11 04:01:27;;;;;;;;;;;15.50;75.90;;;;;;5021531;28;19929;-75
2022/07/11 04:03:54;;;;;;;;;;;15.50;76.00;;;;;;5019483;28;19933;-75
2022/07/11 04:06:21;;;;;;;;;;;15.50;75.90;;;;;;5028742;28;19925;-74
2022/07/11 04:08:48;;;;;;;;;;;15.40;75.80;;;;;;5026054;28;19925;-76
2022/07/11 04:11:15;;;;;;;;;;;15.40;76.10;;;;;;5018079;28;19963;-74
2022/07/11 04:13:42;;;;;;;;;;;;;;;;;;5019311;28;20030;-74
2022/07/11 04:16:10;;;;;;;;;;;15.30;75.30;;;;;;5005684;28;20012;-73
2022/07/11 04:18:37;;;;;;;;;;;15.20;76.40;;;;;;5022468;28;19933;-74
2022/07/11 04:21:04;;;;;;;;;;;15.00;76.80;;;;;;5031236;28;19936;-75
2022/07/11 04:23:31;;;;;;;;;;;14.90;77.10;;;;;;5024230;28;19932;-74
2022/07/11 04:25:58;;;;;;;;;;;14.90;77.20;;;;;;5027346;28;19945;-74
2022/07/11 04:28:25;;;;;;;;;;;14.90;77.50;;;;;;5025664;28;19937;-74
2022/07/11 04:30:51;;;;;;;;;;;14.90;77.70;;;;;;5002442;28;20465;-74
2022/07/11 04:33:20;;;;;;;;;;;14.80;77.60;;;;;;5006527;28;19991;-73
2022/07/11 04:35:46;;;;;;;;;;;14.80;77.80;;;;;;5028841;28;20107;-75
2022/07/11 04:38:13;;;;;;;;;;;14.80;78.10;;;;;;5025711;28;19977;-74
2022/07/11 04:40:40;;;;;;;;;;;14.80;78.10;;;;;;5022525;28;19933;-73
2022/07/11 04:43:07;;;;;;;;;;;14.80;78.30;;;;;;5026630;28;19933;-76
2022/07/11 04:45:34;;;;;;;;;;;14.80;78.50;;;;;;5012118;28;19933;-77
2022/07/11 04:48:01;;;;;;;;;;;14.80;78.70;;;;;;5018896;28;20012;-73
2022/07/11 04:50:30;;;;;;;;;;;14.70;78.70;;;;;;5023398;28;19940;-75
2022/07/11 04:52:56;;;;;;;;;;;14.70;78.80;;;;;;5027777;28;19992;-74
2022/07/11 04:55:23;;;;;;;;;;;14.70;78.80;;;;;;5021268;28;19940;-74
2022/07/11 04:57:50;;;;;;;;;;;14.70;78.90;;;;;;5037404;28;20012;-77
2022/07/11 05:00:20;;;;;;;;;;;14.70;79.00;;;;;;5025260;28;20033;-74
2022/07/11 05:02:46;;;;;;;;;;;14.70;79.10;;;;;;5022267;28;20399;-74
2022/07/11 05:05:13;;;;;;;;;;;14.70;79.10;;;;;;5023075;28;19925;-75
2022/07/11 05:07:42;;;;;;;;;;;14.80;78.50;;;;;;5019515;28;19929;-73
2022/07/11 05:10:11;;;;;;;;;;;14.80;78.30;;;;;;5024252;28;20375;-75
2022/07/11 05:12:38;;;;;;;;;;;14.90;78.40;;;;;;5023619;28;20462;-75
2022/07/11 05:15:05;;;;;;;;;;;14.80;80.10;;;;;;5020547;28;19964;-75
2022/07/11 05:17:32;;;;;;;;;;;14.80;81.30;;;;;;5009506;28;19933;-75
2022/07/11 05:19:59;;;;;;;;;;;14.70;81.50;;;;;;5020157;28;19947;-74
2022/07/11 05:22:26;;;;;;;;;;;14.70;81.20;;;;;;5020496;28;20013;-77
2022/07/11 05:24:54;;;;;;;;;;;14.70;81.50;;;;;;5007195;28;19929;-75
2022/07/11 05:27:21;;;;;;;;;;;14.70;81.20;;;;;;5035947;28;19929;-76
2022/07/11 05:29:48;;;;;;;;;;;14.70;81.20;;;;;;5038185;28;19984;-75
2022/07/11 05:32:15;;;;;;;;;;;14.70;81.20;;;;;;5011102;28;20008;-77
2022/07/11 05:34:42;;;;;;;;;;;14.70;81.40;;;;;;5031775;28;19933;-76
2022/07/11 05:37:09;;;;;;;;;;;14.70;81.60;;;;;;5032022;28;20012;-76
2022/07/11 05:39:35;;;;;;;;;;;14.70;81.50;;;;;;5021178;28;19940;-74
2022/07/11 05:42:04;;;;;;;;;;;14.70;81.60;;;;;;5007962;28;19929;-75
2022/07/11 05:44:31;;;;;;;;;;;14.70;81.70;;;;;;5025462;28;20307;-75
2022/07/11 05:47:02;;;;;;;;;;;14.70;82.10;;;;;;5024786;28;20649;-74
2022/07/11 05:49:29;;;;;;;;;;;14.80;83.10;;;;;;5006940;28;19925;-75
2022/07/11 05:51:55;;;;;;;;;;;14.80;83.40;;;;;;5031156;28;20296;-75
2022/07/11 05:54:22;;;;;;;;;;;14.80;83.10;;;;;;5032203;28;19925;-75
2022/07/11 05:56:49;;;;;;;;;;;14.80;82.80;;;;;;5032543;28;19936;-75
2022/07/11 05:59:17;;;;;;;;;;;14.80;82.70;;;;;;5031987;28;19925;-75
2022/07/11 06:01:44;;;;;;;;;;;14.80;82.60;;;;;;5040100;28;19979;-74
2022/07/11 06:04:13;;;;;;;;;;;14.90;82.50;;;;;;5040768;28;19929;-75
2022/07/11 06:06:40;;;;;;;;;;;14.90;82.40;;;;;;5028744;28;20483;-75
2022/07/11 06:09:07;;;;;;;;;;;14.90;82.40;;;;;;5031009;28;20339;-76
2022/07/11 06:11:34;;;;;;;;;;;14.90;82.40;;;;;;5031117;28;19929;-75
2022/07/11 06:14:00;;;;;;;;;;;14.90;82.30;;;;;;5027348;28;19929;-75
2022/07/11 06:16:29;;;;;;;;;;;14.90;82.20;;;;;;5031204;28;19929;-75
2022/07/11 06:18:55;;;;;;;;;;;14.90;82.10;;;;;;5023675;28;19961;-75
2022/07/11 06:21:22;;;;;;;;;;;15.00;82.30;;;;;;5026357;28;19929;-75
2022/07/11 06:23:49;;;;;;;;;;;15.00;82.10;;;;;;5031345;28;20168;-77
2022/07/11 06:26:17;;;;;;;;;;;15.00;82.30;;;;;;5031639;28;19933;-75
2022/07/11 06:28:44;;;;;;;;;;;15.00;82.10;;;;;;5029976;28;20012;-75
2022/07/11 06:31:11;;;;;;;;;;;15.00;82.10;;;;;;5003424;28;19926;-74
2022/07/11 06:33:39;;;;;;;;;;;15.10;82.20;;;;;;5031089;28;20642;-76
2022/07/11 06:36:06;;;;;;;;;;;15.00;82.10;;;;;;5027375;28;19924;-75
2022/07/11 06:38:34;;;;;;;;;;;15.10;82.30;;;;;;5030871;28;19965;-74
2022/07/11 06:41:01;;;;;;;;;;;15.10;82.30;;;;;;5029798;28;19925;-74
2022/07/11 06:43:29;;;;;;;;;;;15.10;82.30;;;;;;5029806;28;20331;-75
2022/07/11 06:45:55;;;;;;;;;;;15.10;82.30;;;;;;5031679;28;19933;-75
2022/07/11 06:48:22;;;;;;;;;;;15.10;82.30;;;;;;5024724;28;20359;-74
2022/07/11 06:50:50;;;;;;;;;;;15.20;82.30;;;;;;5036213;28;19972;-74
2022/07/11 06:53:17;;;;;;;;;;;15.20;82.30;;;;;;5029813;28;20390;-75
2022/07/11 06:55:44;;;;;;;;;;;15.20;82.70;;;;;;5028864;28;20340;-75
2022/07/11 06:58:12;;;;;;;;;;;15.20;83.00;;;;;;5030988;28;19971;-74
2022/07/11 07:00:38;;;;;;;;;;;15.20;83.20;;;;;;5030811;28;19929;-75
2022/07/11 07:03:05;;;;;;;;;;;15.20;82.90;;;;;;5016877;28;19995;-73
2022/07/11 07:05:33;;;;;;;;;;;15.20;83.00;;;;;;5023562;28;19929;-76
2022/07/11 07:08:01;;;;;;;;;;;15.30;83.40;;;;;;5032485;28;19925;-74
2022/07/11 07:10:28;;;;;;;;;;;15.30;83.40;;;;;;5012392;28;20069;-74
2022/07/11 07:12:55;;;;;;;;;;;15.30;83.50;;;;;;5031505;28;19933;-74
2022/07/11 07:15:22;;;;;;;;;;;15.30;83.90;;;;;;5025613;28;19936;-75
2022/07/11 07:17:49;;;;;;;;;;;15.40;84.20;;;;;;5028184;28;20343;-76
2022/07/11 07:20:16;;;;;;;;;;;15.40;83.90;;;;;;5032685;28;19937;-74
2022/07/11 07:22:43;;;;;;;;;;;15.40;83.50;;;;;;5025857;28;19929;-76
2022/07/11 07:25:11;;;;;;;;;;;15.40;83.10;;;;;;5027792;28;19941;-74
2022/07/11 07:27:38;;;;;;;;;;;15.40;83.20;;;;;;5031453;28;19925;-75
2022/07/11 07:30:05;;;;;;;;;;;15.50;83.50;;;;;;5027269;28;19924;-74
2022/07/11 07:32:32;;;;;;;;;;;15.50;83.50;;;;;;5020409;28;20308;-74
2022/07/11 07:35:00;;;;;;;;;;;15.50;83.60;;;;;;5035080;28;20737;-75
2022/07/11 07:37:27;;;;;;;;;;;15.50;83.90;;;;;;5025091;28;19930;-74
2022/07/11 07:39:54;;;;;;;;;;;15.50;83.80;;;;;;5023308;28;20300;-74
2022/07/11 07:42:22;;;;;;;;;;;15.60;83.80;;;;;;5029312;28;19960;-77
2022/07/11 07:44:49;;;;;;;;;;;15.60;83.90;;;;;;5032027;28;19929;-75
2022/07/11 07:47:16;;;;;;;;;;;15.60;84.00;;;;;;5029068;28;19987;-75
2022/07/11 07:49:43;;;;;;;;;;;15.60;83.70;;;;;;5024724;28;19925;-76
2022/07/11 07:52:10;;;;;;;;;;;15.60;83.90;;;;;;5022547;28;19929;-74
2022/07/11 07:54:37;;;;;;;;;;;15.70;83.80;;;;;;5022530;28;19925;-75
2022/07/11 07:57:04;;;;;;;;;;;15.70;83.80;;;;;;5027082;28;20027;-76
2022/07/11 07:59:32;;;;;;;;;;;15.70;83.90;;;;;;5011584;28;20392;-75
2022/07/11 08:01:58;;;;;;;;;;;15.70;84.00;;;;;;5026933;28;20327;-75
2022/07/11 08:04:25;;;;;;;;;;;15.80;84.50;;;;;;5026441;28;19921;-71
2022/07/11 08:06:52;;;;;;;;;;;15.80;84.50;;;;;;5031725;28;19947;-71
2022/07/11 08:09:19;;;;;;;;;;;15.80;84.60;;;;;;5018760;28;19925;-73
2022/07/11 08:11:45;;;;;;;;;;;15.90;84.90;;;;;;5030942;28;19952;-72
2022/07/11 08:14:12;;;;;;;;;;;15.90;85.30;;;;;;5012824;28;19972;-73
2022/07/11 08:16:41;;;;;;;;;;;15.90;85.10;;;;;;5025826;28;19975;-72
2022/07/11 08:19:09;;;;;;;;;;;16.00;85.20;;;;;;5026261;28;20047;-72
2022/07/11 08:21:36;;;;;;;;;;;16.00;85.20;;;;;;5024612;28;19972;-72
2022/07/11 08:24:03;;;;;;;;;;;16.00;85.30;;;;;;5029818;28;19940;-72
2022/07/11 08:26:30;;;;;;;;;;;16.00;85.40;;;;;;5022821;28;20012;-71
2022/07/11 08:28:57;;;;;;;;;;;16.10;85.50;;;;;;5029370;28;19925;-71
2022/07/11 08:31:24;;;;;;;;;;;16.10;85.50;;;;;;5014679;28;20399;-72
2022/07/11 08:33:53;;;;;;;;;;;16.10;85.40;;;;;;5034114;28;19979;-73
2022/07/11 08:36:20;;;;;;;;;;;16.20;85.70;;;;;;5022068;28;19938;-74
2022/07/11 08:38:47;;;;;;;;;;;16.20;85.50;;;;;;5031130;28;19995;-77
2022/07/11 08:41:14;;;;;;;;;;;16.20;85.70;;;;;;5025471;28;19925;-76
2022/07/11 08:43:42;;;;;;;;;;;16.30;85.70;;;;;;5023832;28;19975;-74
2022/07/11 08:46:09;;;;;;;;;;;16.30;85.70;;;;;;5014100;28;19925;-75
2022/07/11 08:48:38;;;;;;;;;;;16.30;85.70;;;;;;5032783;28;19924;-74
2022/07/11 08:51:08;;;;;;;;;;;16.40;85.90;;;;;;5035198;28;19979;-75
2022/07/11 08:53:39;;;;;;;;;;;16.40;85.90;;;;;;5023023;28;19925;-76
2022/07/11 08:56:09;;;;;;;;;;;16.40;85.90;;;;;;5038713;28;19925;-74
2022/07/11 08:58:37;;;;;;;;;;;16.50;85.90;;;;;;5019101;28;19976;-74
2022/07/11 09:01:04;;;;;;;;;;;16.50;85.80;;;;;;5024181;28;20418;-74
2022/07/11 09:03:32;;;;;;;;;;;16.50;85.70;;;;;;5025909;28;19930;-75
2022/07/11 09:05:59;;;;;;;;;;;16.60;85.70;;;;;;5032219;28;19932;-72
2022/07/11 09:08:27;;;;;;;;;;;16.50;85.40;;;;;;5030400;28;19925;-71
2022/07/11 09:10:54;;;;;;;;;;;16.60;85.50;;;;;;5031562;28;20015;-73
2022/07/11 09:13:21;;;;;;;;;;;16.60;85.40;;;;;;5034649;28;19952;-72
2022/07/11 09:15:48;;;;;;;;;;;16.70;85.70;;;;;;5024466;28;19956;-73
2022/07/11 09:18:31;;;;;;;;;;;16.70;85.60;;;;;;5026743;28;20433;-72
2022/07/11 09:26:32;;;;;;;;;;;16.70;85.30;;;;;;5029938;28;19926;-73
2022/07/11 09:29:04;;;;;;;;;;;16.80;85.40;;;;;;5015437;28;20310;-73
2022/07/11 09:31:32;;;;;;;;;;;16.80;85.40;;;;;;5030400;28;19976;-73
2022/07/11 09:33:59;;;;;;;;;;;16.90;85.50;;;;;;5031987;28;20342;-73
2022/07/11 09:36:43;;;;;;;;;;;16.90;85.30;;;;;;5025972;28;19925;-72
2022/07/11 09:39:15;;;;;;;;;;;16.90;85.40;;;;;;5027194;28;19933;-73
2022/07/11 09:41:42;;;;;;;;;;;16.90;85.40;;;;;;5029268;28;19979;-72
2022/07/11 09:44:10;;;;;;;;;;;17.00;85.50;;;;;;5013029;28;19936;-73
2022/07/11 09:46:37;;;;;;;;;;;17.00;85.00;;;;;;5031663;28;20379;-73
2022/07/11 09:49:04;;;;;;;;;;;17.00;84.90;;;;;;5035557;28;19925;-71
2022/07/11 09:51:32;;;;;;;;;;;17.00;84.70;;;;;;5024609;28;19933;-72
2022/07/11 09:53:59;;;;;;;;;;;17.10;85.00;;;;;;5019279;28;19933;-73
2022/07/11 09:56:33;;;;;;;;;;;17.10;84.30;;;;;;5024639;28;19948;-72
2022/07/11 09:59:00;;;;;;;;;;;17.10;84.70;;;;;;5033140;28;20395;-72
2022/07/11 10:01:27;;;;;;;;;;;17.10;84.80;;;;;;5028254;28;19955;-71
2022/07/11 10:03:54;;;;;;;;;;;17.20;84.80;;;;;;5026960;28;19956;-73
2022/07/11 10:06:21;;;;;;;;;;;17.20;84.70;;;;;;5032030;28;19947;-72
2022/07/11 10:08:48;;;;;;;;;;;17.20;84.70;;;;;;5024298;28;19937;-73
2022/07/11 10:11:16;;;;;;;;;;;17.30;84.70;;;;;;5026316;28;19925;-73
2022/07/11 10:13:44;;;;;;;;;;;17.30;84.60;;;;;;5021026;28;20439;-72
2022/07/11 10:16:15;;;;;;;;;;;17.30;84.40;;;;;;5034443;28;19925;-72
2022/07/11 10:18:45;;;;;;;;;;;17.40;84.60;;;;;;5010657;28;20666;-73
2022/07/11 10:21:15;;;;;;;;;;;17.40;84.90;;;;;;5029315;28;19929;-72
2022/07/11 10:23:45;;;;;;;;;;;17.40;84.90;;;;;;5030686;28;19941;-73
2022/07/11 10:26:20;;;;;;;;;;;17.40;85.00;;;;;;5029621;28;19937;-73
2022/07/11 10:28:49;;;;;;;;;;;17.50;85.10;;;;;;5023969;28;19929;-72
2022/07/11 10:31:20;;;;;;;;;;;17.50;85.00;;;;;;5008052;28;19929;-73
2022/07/11 10:34:01;;;;;;;;;;;17.50;85.00;;;;;;5032492;28;19937;-72
2022/07/11 10:36:29;;;;;;;;;;;17.60;85.20;;;;;;5025381;28;20348;-72
2022/07/11 10:39:13;;;;;;;;;;;17.60;85.10;;;;;;5033928;28;20542;-72
2022/07/11 10:41:39;;;;;;;;;;;17.60;85.10;;;;;;5027537;28;19944;-70
2022/07/11 10:44:08;;;;;;;;;;;17.70;85.20;;;;;;5031583;28;19929;-73
2022/07/11 10:46:36;;;;;;;;;;;17.70;85.20;;;;;;5013990;28;19924;-73
2022/07/11 10:49:08;;;;;;;;;;;17.80;85.10;;;;;;5030988;28;20338;-71
2022/07/11 10:51:37;;;;;;;;;;;17.80;85.10;;;;;;5006801;28;19925;-73
2022/07/11 10:54:11;;;;;;;;;;;17.80;85.10;;;;;;5016192;28;19969;-72
2022/07/11 10:56:47;;;;;;;;;;;17.80;85.10;;;;;;5031981;28;19929;-72
2022/07/11 10:59:16;;;;;;;;;;;17.90;85.20;;;;;;5026042;28;19925;-71
2022/07/11 11:02:01;;;;;;;;;;;17.90;85.20;;;;;;5010419;28;20020;-72
2022/07/11 11:04:48;;;;;;;;;;;17.90;85.20;;;;;;5025449;28;19932;-71
2022/07/11 11:07:33;;;;;;;;;;;18.00;85.30;;;;;;5028044;28;19953;-73
2022/07/11 11:10:01;;;;;;;;;;;18.00;85.10;;;;;;5031020;28;19932;-72
2022/07/11 11:12:46;;;;;;;;;;;18.10;85.30;;;;;;5019308;28;20007;-72
2022/07/11 11:15:32;;;;;;;;;;;18.10;85.30;;;;;;5004562;28;20300;-72
2022/07/11 11:18:20;;;;;;;;;;;18.10;85.30;;;;;;5030582;28;19945;-71
2022/07/11 11:20:47;;;;;;;;;;;18.20;85.30;;;;;;5023984;28;20567;-72
2022/07/11 11:23:20;;;;;;;;;;;18.20;85.20;;;;;;5029436;28;19929;-73
2022/07/11 11:25:50;;;;;;;;;;;18.20;85.20;;;;;;5024609;28;20015;-72
2022/07/11 11:28:20;;;;;;;;;;;18.30;85.30;;;;;;5102141;22;19958;-73
2022/07/11 11:30:53;;;;;;;;;;;18.30;85.30;;;;;;5053218;22;20043;-75
2022/07/11 11:33:21;;;;;;;;;;;18.30;85.20;;;;;;5046169;28;20003;-76
2022/07/11 11:35:58;;;;;;;;;;;18.40;85.50;;;;;;5050966;28;19964;-74
2022/07/11 11:38:25;;;;;;;;;;;18.40;85.50;;;;;;5040189;28;19936;-77
2022/07/11 11:40:52;;;;;;;;;;;18.40;85.70;;;;;;5050090;28;19983;-74
2022/07/11 11:43:19;;;;;;;;;;;18.50;85.80;;;;;;5032316;28;19944;-75
2022/07/11 11:45:47;;;;;;;;;;;18.50;85.80;;;;;;5050891;28;19929;-74
2022/07/11 11:48:27;;;;;;;;;;;18.50;85.70;;;;;;5022476;28;19979;-75
2022/07/11 11:51:00;;;;;;;;;;;18.60;85.70;;;;;;5051873;28;19968;-76
2022/07/11 11:53:29;;;;;;;;;;;18.60;85.80;;;;;;5053225;28;19978;-76
2022/07/11 11:55:56;;;;;;;;;;;18.70;85.90;;;;;;5051684;28;19932;-74
2022/07/11 11:58:22;;;;;;;;;;;18.70;85.90;;;;;;5046969;28;19925;-75
2022/07/11 12:00:54;;;;;;;;;;;18.70;85.60;;;;;;5035349;28;19968;-74
2022/07/11 12:03:21;;;;;;;;;;;18.70;85.70;;;;;;5044435;28;19925;-76
2022/07/11 12:05:56;;;;;;;;;;;18.80;85.80;;;;;;5046897;28;19954;-77
2022/07/11 12:08:26;;;;;;;;;;;18.80;85.70;;;;;;5029759;28;20595;-75
2022/07/11 12:10:53;;;;;;;;;;;18.90;86.00;;;;;;5050559;28;19925;-75
2022/07/11 12:13:20;;;;;;;;;;;18.90;85.80;;;;;;5046978;28;19933;-75
2022/07/11 12:18:36;;;;;;;;;;;19.00;85.90;;;;;;5047486;28;20008;-73
2022/07/11 12:21:11;;;;;;;;;;;19.00;85.90;;;;;;5044276;28;20051;-72
2022/07/11 12:23:38;;;;;;;;;;;19.00;85.70;;;;;;5044078;28;19942;-73
2022/07/11 12:26:05;;;;;;;;;;;19.00;85.60;;;;;;5051747;28;19925;-72
2022/07/11 12:28:32;;;;;;;;;;;19.10;85.80;;;;;;5048426;28;19970;-71
2022/07/11 12:31:01;;;;;;;;;;;19.10;85.90;;;;;;5041437;28;19925;-72
2022/07/11 12:33:28;;;;;;;;;;;19.20;86.00;;;;;;5055106;28;19954;-72
2022/07/11 12:35:56;;;;;;;;;;;19.20;85.90;;;;;;5048770;28;19978;-72
2022/07/11 12:38:25;;;;;;;;;;;19.20;85.70;;;;;;5049308;28;20358;-72
2022/07/11 12:40:58;;;;;;;;;;;19.30;85.90;;;;;;5047287;28;19978;-72
2022/07/11 12:46:23;;;;;;;;;;;19.40;86.70;;;;;;5033266;28;20084;-72
2022/07/11 12:48:51;;;;;;;;;;;19.40;85.80;;;;;;5049322;28;19928;-73
2022/07/11 12:51:26;;;;;;;;;;;19.40;85.80;;;;;;5044756;28;20651;-72
2022/07/11 12:54:01;;;;;;;;;;;19.50;85.80;;;;;;5054270;28;20406;-71
2022/07/11 12:56:28;;;;;;;;;;;19.50;85.70;;;;;;5041249;28;19931;-72
2022/07/11 12:58:54;;;;;;;;;;;19.50;85.50;;;;;;5048723;28;19950;-72
2022/07/11 13:01:21;;;;;;;;;;;19.60;85.40;;;;;;5046596;28;20268;-72
2022/07/11 13:03:48;;;;;;;;;;;19.60;85.50;;;;;;5044292;28;19986;-72
2022/07/11 13:06:16;;;;;;;;;;;19.70;85.70;;;;;;5048435;28;20307;-72
2022/07/11 13:08:45;;;;;;;;;;;19.70;85.70;;;;;;5034712;28;19932;-72
2022/07/11 13:11:14;;;;;;;;;;;19.70;86.20;;;;;;5041944;28;19927;-72
2022/07/11 13:13:41;;;;;;;;;;;19.80;85.60;;;;;;5047904;28;19936;-72
2022/07/11 13:16:09;;;;;;;;;;;19.80;85.60;;;;;;5030338;28;19935;-72
2022/07/11 13:18:35;;;;;;;;;;;19.90;86.10;;;;;;5047234;28;19933;-70
2022/07/11 13:21:03;;;;;;;;;;;19.90;85.40;;;;;;5048737;28;19987;-72
2022/07/11 13:23:30;;;;;;;;;;;19.90;85.60;;;;;;5035084;28;19940;-70
2022/07/11 13:25:57;;;;;;;;;;;19.90;85.80;;;;;;5052214;28;19932;-72
2022/07/11 13:28:25;;;;;;;;;;;20.00;85.80;;;;;;5048350;28;20297;-71
2022/07/11 13:30:52;;;;;;;;;;;20.00;85.80;;;;;;5051677;28;20620;-71
2022/07/11 13:33:19;;;;;;;;;;;20.10;85.90;;;;;;5049189;28;19928;-72
2022/07/11 13:35:46;;;;;;;;;;;20.00;85.40;;;;;;5046354;28;19925;-72
2022/07/11 13:38:13;;;;;;;;;;;20.10;85.60;;;;;;5050547;28;19947;-72
2022/07/11 13:40:40;;;;;;;;;;;20.10;85.70;;;;;;5048820;28;19924;-72
2022/07/11 13:43:07;;;;;;;;;;;20.10;85.80;;;;;;5046583;28;19929;-72
2022/07/11 13:45:35;;;;;;;;;;;20.20;85.70;;;;;;5033345;28;20395;-71
2022/07/11 13:48:02;;;;;;;;;;;20.20;85.40;;;;;;5051209;28;20426;-72
2022/07/11 13:50:29;;;;;;;;;;;20.20;85.30;;;;;;5055179;28;20476;-74
2022/07/11 13:52:56;;;;;;;;;;;20.30;85.50;;;;;;5035869;28;19925;-73
2022/07/11 13:55:25;;;;;;;;;;;20.30;85.70;;;;;;5055251;28;19928;-73
2022/07/11 13:57:53;;;;;;;;;;;20.30;85.70;;;;;;5052966;28;19929;-74
2022/07/11 14:00:20;;;;;;;;;;;20.30;85.60;;;;;;5035162;28;19975;-74
2022/07/11 14:02:48;;;;;;;;;;;20.40;85.60;;;;;;5028992;28;19925;-75
2022/07/11 14:05:15;;;;;;;;;;;20.40;85.60;;;;;;5054697;28;20023;-76
2022/07/11 14:07:42;;;;;;;;;;;20.40;85.30;;;;;;5052106;28;19940;-75
2022/07/11 14:10:09;;;;;;;;;;;20.40;85.20;;;;;;5038151;28;19929;-73
2022/07/11 14:12:36;;;;;;;;;;;20.50;85.20;;;;;;5050203;28;19937;-73
2022/07/11 14:15:03;;;;;;;;;;;20.50;85.20;;;;;;5049275;28;19925;-72
2022/07/11 14:17:30;;;;;;;;;;;20.50;85.00;;;;;;5048700;28;20504;-72
2022/07/11 14:19:58;;;;;;;;;;;20.60;85.10;;;;;;5032876;28;19925;-72
2022/07/11 14:22:25;;;;;;;;;;;20.60;85.20;;;;;;5051380;28;19929;-72
2022/07/11 14:24:52;;;;;;;;;;;20.60;85.00;;;;;;5028893;28;19968;-73
2022/07/11 14:27:19;;;;;;;;;;;20.60;84.90;;;;;;5043593;28;19998;-73
2022/07/11 14:29:47;;;;;;;;;;;20.60;84.90;;;;;;5042661;28;19925;-73
2022/07/11 14:32:14;;;;;;;;;;;20.70;84.90;;;;;;5042063;28;19933;-73
2022/07/11 14:34:43;;;;;;;;;;;20.70;84.90;;;;;;5031431;28;19929;-72
2022/07/11 14:37:11;;;;;;;;;;;20.70;84.70;;;;;;5039567;28;20019;-75